createdAt,value
2018-12-26T00:01:55.632Z,33.87
2018-12-26T00:04:38.120Z,33.93
2018-12-26T00:07:20.535Z,32.37
2018-12-26T00:10:02.904Z,31.30
2018-12-26T00:12:45.426Z,34.20
2018-12-26T00:15:28.047Z,30.17
2018-12-26T00:18:10.352Z,20.97
2018-12-26T00:20:52.503Z,37.00
2018-12-26T00:23:23.102Z,26.13
2018-12-26T00:26:05.669Z,28.97
2018-12-26T00:28:48.087Z,29.60
2018-12-26T00:31:30.800Z,38.63
2018-12-26T00:34:13.162Z,27.83
2018-12-26T00:36:55.855Z,35.93
2018-12-26T00:39:38.076Z,23.77
2018-12-26T00:42:20.562Z,30.83
2018-12-26T00:44:50.907Z,32.33
2018-12-26T00:47:33.287Z,24.07
2018-12-26T00:50:15.474Z,22.30
2018-12-26T00:55:54.979Z,16.83
2018-12-26T00:58:37.140Z,27.93
2018-12-26T01:01:19.427Z,33.97
2018-12-26T01:04:01.694Z,21.70
2018-12-26T01:06:43.822Z,27.80
2018-12-26T01:09:25.562Z,16.87
2018-12-26T01:12:08.487Z,28.90
2018-12-26T01:14:50.985Z,33.20
2018-12-26T01:17:32.723Z,21.87
2018-12-26T01:20:14.484Z,23.83
2018-12-26T01:22:56.811Z,21.67
2018-12-26T01:25:39.065Z,28.80
2018-12-26T01:28:21.426Z,21.20
2018-12-26T01:31:04.052Z,32.90
2018-12-26T01:33:45.951Z,16.97
2018-12-26T01:36:27.971Z,18.50
2018-12-26T01:39:10.641Z,32.67
2018-12-26T01:41:52.681Z,33.80
2018-12-26T01:44:35.331Z,20.97
2018-12-26T01:47:17.557Z,20.33
2018-12-26T01:50:00.258Z,31.40
2018-12-26T01:52:42.552Z,35.80
2018-12-26T01:55:24.903Z,31.37
2018-12-26T01:58:07.277Z,39.27
2018-12-26T02:00:49.318Z,38.57
2018-12-26T02:03:31.518Z,40.30
2018-12-26T02:06:14.095Z,24.03
2018-12-26T02:08:55.289Z,46.40
2018-12-26T02:11:36.223Z,48.30
2018-12-26T02:14:06.719Z,39.70
2018-12-26T02:16:56.579Z,30.47
2018-12-26T02:19:39.112Z,35.57
2018-12-26T02:22:21.487Z,29.27
2018-12-26T02:25:04.116Z,17.20
2018-12-26T02:27:45.963Z,31.33
2018-12-26T02:30:28.102Z,35.03
2018-12-26T02:33:10.592Z,37.87
2018-12-26T02:35:41.212Z,38.27
2018-12-26T02:38:23.819Z,20.03
2018-12-26T02:41:05.903Z,24.23
2018-12-26T02:43:48.077Z,37.93
2018-12-26T02:46:18.495Z,34.97
2018-12-26T02:49:00.735Z,32.43
2018-12-26T02:51:42.501Z,33.40
2018-12-26T02:54:24.992Z,32.07
2018-12-26T02:57:06.741Z,27.00
2018-12-26T02:59:49.440Z,36.83
2018-12-26T03:02:20.004Z,21.00
2018-12-26T03:05:02.371Z,44.33
2018-12-26T03:07:44.453Z,32.53
2018-12-26T03:10:26.811Z,40.57
2018-12-26T03:13:09.563Z,30.60
2018-12-26T03:15:52.032Z,39.03
2018-12-26T03:18:33.747Z,39.73
2018-12-26T03:21:15.745Z,46.83
2018-12-26T03:23:57.826Z,24.97
2018-12-26T03:26:40.486Z,32.73
2018-12-26T03:29:22.459Z,37.20
2018-12-26T03:32:05.027Z,25.37
2018-12-26T03:34:46.610Z,34.47
2018-12-26T03:37:28.901Z,39.17
2018-12-26T03:40:11.668Z,43.67
2018-12-26T03:42:53.529Z,28.30
2018-12-26T03:45:36.137Z,22.47
2018-12-26T03:48:18.426Z,38.00
2018-12-26T03:51:00.943Z,33.43
2018-12-26T03:53:43.147Z,32.80
2018-12-26T03:56:24.931Z,23.73
2018-12-26T03:59:07.642Z,34.27
2018-12-26T04:01:49.667Z,26.07
2018-12-26T04:04:32.039Z,45.23
2018-12-26T04:07:14.428Z,37.70
2018-12-26T04:09:56.548Z,29.83
2018-12-26T04:12:38.636Z,40.57
2018-12-26T04:15:21.044Z,38.67
2018-12-26T04:18:03.515Z,24.13
2018-12-26T04:20:45.879Z,30.33
2018-12-26T04:23:16.334Z,23.83
2018-12-26T04:25:46.691Z,31.43
2018-12-26T04:28:36.301Z,40.03
2018-12-26T04:31:18.583Z,27.60
2018-12-26T04:34:00.831Z,29.77
2018-12-26T04:36:42.563Z,26.73
2018-12-26T04:39:24.546Z,36.83
2018-12-26T04:42:06.434Z,21.77
2018-12-26T04:44:48.672Z,26.57
2018-12-26T04:47:31.028Z,33.10
2018-12-26T04:50:13.705Z,33.90
2018-12-26T04:52:56.220Z,24.43
2018-12-26T04:55:38.276Z,24.33
2018-12-26T04:58:20.445Z,7.70
2018-12-26T05:01:02.400Z,22.10
2018-12-26T05:03:44.587Z,25.83
2018-12-26T05:06:27.067Z,26.00
2018-12-26T05:09:09.403Z,24.77
2018-12-26T05:11:51.495Z,15.23
2018-12-26T05:14:33.675Z,19.03
2018-12-26T05:17:16.812Z,19.33
2018-12-26T05:19:58.531Z,23.80
2018-12-26T05:22:40.959Z,26.27
2018-12-26T05:25:23.088Z,23.20
2018-12-26T05:28:05.326Z,22.10
2018-12-26T05:30:47.447Z,16.17
2018-12-26T05:33:29.260Z,19.03
2018-12-26T05:36:11.564Z,23.70
2018-12-26T05:38:55.031Z,18.50
2018-12-26T05:41:37.191Z,16.53
2018-12-26T05:44:19.557Z,16.40
2018-12-26T05:47:01.878Z,18.03
2018-12-26T05:49:43.680Z,13.37
2018-12-26T05:52:25.999Z,13.77
2018-12-26T05:54:56.423Z,13.07
2018-12-26T05:57:45.781Z,18.13
2018-12-26T06:00:27.880Z,15.80
2018-12-26T06:03:09.896Z,16.63
2018-12-26T06:05:52.090Z,17.63
2018-12-26T06:08:34.047Z,29.50
2018-12-26T06:11:16.743Z,34.17
2018-12-26T06:13:59.391Z,21.70
2018-12-26T06:16:41.591Z,22.47
2018-12-26T06:19:23.503Z,21.97
2018-12-26T06:22:05.960Z,19.20
2018-12-26T06:24:48.028Z,16.77
2018-12-26T06:27:30.403Z,15.20
2018-12-26T06:30:12.467Z,18.57
2018-12-26T06:32:54.663Z,17.57
2018-12-26T06:35:37.215Z,28.23
2018-12-26T06:38:19.336Z,34.73
2018-12-26T06:41:01.547Z,21.60
2018-12-26T06:43:43.767Z,15.60
2018-12-26T06:46:25.871Z,23.80
2018-12-26T06:49:07.976Z,20.10
2018-12-26T06:51:49.579Z,17.90
2018-12-26T06:54:31.915Z,13.93
2018-12-26T06:57:13.927Z,10.17
2018-12-26T06:59:55.555Z,26.60
2018-12-26T07:02:37.378Z,18.97
2018-12-26T07:05:20.126Z,18.87
2018-12-26T07:08:02.645Z,17.37
2018-12-26T07:10:45.126Z,12.70
2018-12-26T07:13:27.467Z,17.67
2018-12-26T07:16:09.620Z,12.60
2018-12-26T07:18:51.821Z,19.33
2018-12-26T07:21:33.980Z,16.03
2018-12-26T07:24:16.165Z,10.73
2018-12-26T07:26:46.860Z,14.00
2018-12-26T07:29:17.199Z,12.50
2018-12-26T07:31:59.588Z,14.80
2018-12-26T07:34:42.359Z,15.40
2018-12-26T07:37:24.069Z,8.00
2018-12-26T07:40:06.204Z,12.37
2018-12-26T07:42:48.395Z,11.50
2018-12-26T07:45:30.295Z,13.73
2018-12-26T07:48:12.515Z,11.63
2018-12-26T07:50:54.691Z,11.93
2018-12-26T07:53:36.920Z,9.53
2018-12-26T07:56:18.973Z,10.63
2018-12-26T07:59:01.323Z,16.63
2018-12-26T08:01:43.423Z,13.23
2018-12-26T08:04:25.859Z,14.93
2018-12-26T08:07:07.943Z,10.23
2018-12-26T08:09:48.795Z,12.30
2018-12-26T08:12:30.619Z,19.47
2018-12-26T08:15:12.727Z,16.60
2018-12-26T08:17:54.961Z,12.87
2018-12-26T08:20:37.407Z,19.00
2018-12-26T08:23:19.469Z,12.10
2018-12-26T08:26:01.703Z,25.97
2018-12-26T08:28:44.169Z,14.47
2018-12-26T08:31:14.652Z,21.57
2018-12-26T08:34:04.232Z,13.80
2018-12-26T08:36:34.900Z,12.10
2018-12-26T08:39:25.763Z,12.43
2018-12-26T08:42:07.488Z,13.50
2018-12-26T08:44:49.552Z,14.50
2018-12-26T08:47:31.626Z,15.37
2018-12-26T08:50:12.495Z,12.90
2018-12-26T08:52:54.544Z,14.40
2018-12-26T08:55:36.300Z,19.83
2018-12-26T08:58:18.839Z,20.50
2018-12-26T09:01:00.771Z,14.77
2018-12-26T09:03:42.715Z,10.40
2018-12-26T09:06:25.259Z,17.40
2018-12-26T09:09:07.028Z,12.60
2018-12-26T09:11:49.359Z,16.87
2018-12-26T09:14:31.815Z,16.77
2018-12-26T09:17:13.607Z,13.73
2018-12-26T09:19:55.698Z,15.17
2018-12-26T09:22:37.715Z,10.23
2018-12-26T09:25:19.739Z,11.33
2018-12-26T09:28:01.591Z,10.07
2018-12-26T09:30:42.727Z,8.03
2018-12-26T09:33:12.963Z,18.20
2018-12-26T09:36:02.543Z,18.03
2018-12-26T09:38:44.847Z,11.20
2018-12-26T09:41:15.295Z,12.37
2018-12-26T09:44:04.700Z,7.30
2018-12-26T09:46:47.176Z,9.97
2018-12-26T09:49:29.259Z,11.67
2018-12-26T09:52:11.405Z,7.07
2018-12-26T09:54:53.327Z,12.07
2018-12-26T09:57:35.495Z,11.97
2018-12-26T10:00:17.251Z,9.17
2018-12-26T10:02:59.533Z,10.53
2018-12-26T10:05:41.770Z,8.37
2018-12-26T10:08:24.919Z,7.40
2018-12-26T10:11:06.745Z,9.03
2018-12-26T10:13:38.211Z,6.53
2018-12-26T10:16:20.083Z,12.83
2018-12-26T10:19:02.399Z,13.53
2018-12-26T10:21:46.551Z,7.60
2018-12-26T10:24:29.653Z,11.27
2018-12-26T10:27:11.003Z,16.83
2018-12-26T10:29:52.991Z,15.03
2018-12-26T10:32:35.150Z,13.40
2018-12-26T10:35:17.656Z,16.47
2018-12-26T10:37:59.847Z,24.63
2018-12-26T10:40:42.087Z,18.37
2018-12-26T10:43:23.832Z,18.47
2018-12-26T10:46:06.186Z,14.13
2018-12-26T10:48:48.623Z,20.07
2018-12-26T10:51:31.687Z,29.47
2018-12-26T10:54:13.731Z,21.63
2018-12-26T10:56:56.545Z,27.03
2018-12-26T10:59:38.159Z,24.73
2018-12-26T11:02:08.962Z,31.67
2018-12-26T11:04:58.762Z,21.37
2018-12-26T11:07:40.731Z,16.17
2018-12-26T11:10:23.244Z,17.37
2018-12-26T11:13:05.543Z,16.30
2018-12-26T11:15:47.666Z,11.63
2018-12-26T11:18:30.463Z,17.37
2018-12-26T11:21:12.723Z,16.70
2018-12-26T11:23:43.543Z,16.37
2018-12-26T11:26:32.926Z,16.07
2018-12-26T11:29:18.751Z,14.57
2018-12-26T11:31:59.379Z,13.70
2018-12-26T11:34:41.620Z,23.30
2018-12-26T11:37:23.362Z,20.07
2018-12-26T11:40:05.531Z,28.80
2018-12-26T11:42:35.902Z,23.33
2018-12-26T11:45:17.978Z,17.07
2018-12-26T11:48:00.480Z,24.90
2018-12-26T11:50:42.675Z,29.17
2018-12-26T11:53:25.287Z,21.77
2018-12-26T11:56:07.616Z,16.33
2018-12-26T11:58:49.854Z,19.77
2018-12-26T12:01:32.243Z,14.53
2018-12-26T12:04:14.579Z,24.33
2018-12-26T12:06:58.130Z,20.13
2018-12-26T12:09:40.935Z,17.87
2018-12-26T12:12:47.512Z,18.50
2018-12-26T12:18:26.501Z,14.30
2018-12-26T12:20:58.370Z,15.70
2018-12-26T12:23:44.793Z,11.97
2018-12-26T12:26:28.375Z,26.17
2018-12-26T12:29:11.961Z,19.70
2018-12-26T12:31:53.983Z,24.52
2018-12-26T12:34:36.729Z,25.27
2018-12-26T12:37:26.446Z,26.57
2018-12-26T12:40:08.733Z,25.23
2018-12-26T12:42:51.120Z,24.13
2018-12-26T12:45:34.340Z,13.83
2018-12-26T12:48:16.512Z,24.80
2018-12-26T12:50:59.204Z,25.33
2018-12-26T12:53:43.288Z,17.80
2018-12-26T12:56:25.492Z,11.67
2018-12-26T12:59:07.923Z,21.87
2018-12-26T13:01:49.693Z,26.93
2018-12-26T13:04:31.899Z,20.07
2018-12-26T13:07:14.575Z,18.13
2018-12-26T13:09:56.414Z,23.07
2018-12-26T13:12:38.988Z,23.63
2018-12-26T13:15:20.742Z,23.83
2018-12-26T13:18:02.878Z,24.37
2018-12-26T13:20:45.151Z,19.50
2018-12-26T13:23:27.740Z,20.47
2018-12-26T13:25:58.282Z,22.03
2018-12-26T13:28:40.443Z,19.50
2018-12-26T13:31:23.088Z,21.50
2018-12-26T13:34:05.272Z,22.87
2018-12-26T13:36:47.532Z,30.30
2018-12-26T13:39:30.421Z,18.43
2018-12-26T13:42:12.911Z,24.33
2018-12-26T13:44:55.098Z,22.50
2018-12-26T13:47:37.183Z,20.07
2018-12-26T13:50:19.184Z,26.93
2018-12-26T13:53:01.622Z,28.13
2018-12-26T13:55:43.454Z,31.17
2018-12-26T13:58:25.711Z,32.40
2018-12-26T14:01:08.045Z,45.70
2018-12-26T14:03:50.337Z,34.37
2018-12-26T14:06:32.599Z,26.47
2018-12-26T14:09:14.075Z,28.93
2018-12-26T14:11:44.746Z,39.93
2018-12-26T14:14:34.266Z,36.70
2018-12-26T14:17:17.085Z,21.47
2018-12-26T14:19:59.504Z,35.77
2018-12-26T14:22:41.364Z,25.40
2018-12-26T14:25:11.739Z,28.50
2018-12-26T14:27:53.693Z,33.43
2018-12-26T14:30:35.989Z,24.97
2018-12-26T14:33:18.106Z,44.57
2018-12-26T14:36:00.221Z,38.93
2018-12-26T14:38:42.276Z,34.37
2018-12-26T14:41:24.035Z,33.00
2018-12-26T14:44:06.691Z,30.13
2018-12-26T14:46:49.295Z,22.13
2018-12-26T14:49:31.891Z,40.50
2018-12-26T14:52:02.422Z,36.17
2018-12-26T14:54:45.460Z,28.43
2018-12-26T14:57:27.468Z,21.50
2018-12-26T15:00:09.771Z,34.40
2018-12-26T15:02:52.003Z,18.57
2018-12-26T15:05:34.336Z,29.90
2018-12-26T15:08:16.688Z,30.37
2018-12-26T15:10:58.748Z,21.30
2018-12-26T15:13:40.955Z,16.73
2018-12-26T15:16:23.559Z,40.60
2018-12-26T15:19:05.916Z,34.83
2018-12-26T15:21:48.311Z,25.47
2018-12-26T15:24:30.668Z,30.93
2018-12-26T15:27:13.187Z,48.73
2018-12-26T15:29:54.934Z,15.50
2018-12-26T15:35:36.204Z,22.93
2018-12-26T15:38:18.519Z,33.30
2018-12-26T15:40:48.894Z,33.67
2018-12-26T15:43:40.591Z,38.67
2018-12-26T15:46:22.753Z,32.10
2018-12-26T15:48:53.251Z,37.60
2018-12-26T15:51:35.746Z,19.00
2018-12-26T15:54:18.027Z,44.60
2018-12-26T15:57:00.416Z,21.30
2018-12-26T15:59:42.132Z,30.47
2018-12-26T16:02:24.071Z,41.27
2018-12-26T16:07:47.927Z,56.30
2018-12-26T16:10:29.683Z,34.17
2018-12-26T16:13:12.084Z,27.17
2018-12-26T16:15:54.444Z,31.17
2018-12-26T16:18:36.475Z,21.60
2018-12-26T16:21:17.887Z,41.40
2018-12-26T16:23:59.660Z,46.80
2018-12-26T16:26:41.875Z,36.80
2018-12-26T16:29:24.492Z,26.40
2018-12-26T16:32:06.310Z,43.53
2018-12-26T16:34:48.621Z,42.33
2018-12-26T16:37:30.807Z,29.97
2018-12-26T16:40:12.792Z,33.43
2018-12-26T16:42:55.111Z,18.80
2018-12-26T16:45:37.300Z,33.50
2018-12-26T16:48:19.495Z,20.70
2018-12-26T16:51:01.879Z,53.20
2018-12-26T16:53:43.968Z,39.63
2018-12-26T16:56:26.072Z,29.83
2018-12-26T16:59:07.727Z,35.20
2018-12-26T17:01:49.814Z,28.30
2018-12-26T17:04:32.287Z,44.33
2018-12-26T17:07:14.251Z,38.70
2018-12-26T17:09:56.562Z,31.73
2018-12-26T17:12:39.099Z,29.63
2018-12-26T17:15:21.549Z,23.73
2018-12-26T17:18:04.097Z,34.43
2018-12-26T17:20:46.782Z,31.13
2018-12-26T17:23:29.794Z,31.70
2018-12-26T17:26:10.387Z,34.97
2018-12-26T17:28:52.475Z,17.43
2018-12-26T17:31:34.675Z,33.07
2018-12-26T17:34:17.204Z,57.40
2018-12-26T17:37:00.091Z,37.83
2018-12-26T17:39:42.447Z,35.57
2018-12-26T17:42:24.388Z,77.17
2018-12-26T17:45:06.884Z,66.83
2018-12-26T17:47:49.291Z,45.27
2018-12-26T17:50:32.018Z,36.67
2018-12-26T17:53:15.603Z,60.10
2018-12-26T17:55:57.879Z,70.80
2018-12-26T17:58:40.135Z,30.97
2018-12-26T18:01:22.348Z,28.23
2018-12-26T18:04:03.603Z,41.17
2018-12-26T18:06:45.779Z,34.77
2018-12-26T18:09:27.531Z,37.17
2018-12-26T18:12:12.136Z,68.97
2018-12-26T18:15:08.060Z,34.40
2018-12-26T18:17:55.621Z,43.70
2018-12-26T18:24:02.618Z,99.13
2018-12-26T18:26:45.738Z,41.03
2018-12-26T18:29:29.468Z,54.80
2018-12-26T18:32:00.929Z,56.47
2018-12-26T18:34:43.433Z,41.20
2018-12-26T18:37:26.197Z,57.77
2018-12-26T18:40:08.827Z,35.43
2018-12-26T18:42:50.830Z,57.73
2018-12-26T18:45:32.869Z,54.47
2018-12-26T18:48:14.770Z,39.70
2018-12-26T18:50:57.007Z,58.25
2018-12-26T18:53:39.100Z,56.17
2018-12-26T18:56:09.576Z,73.53
2018-12-26T18:58:58.959Z,67.90
2018-12-26T19:01:41.717Z,72.37
2018-12-26T19:04:24.000Z,70.60
2018-12-26T19:09:55.331Z,49.80
2018-12-26T19:12:37.421Z,57.30
2018-12-26T19:15:19.875Z,52.43
2018-12-26T19:18:03.902Z,65.53
2018-12-26T19:20:45.934Z,86.37
2018-12-26T19:23:28.335Z,66.20
2018-12-26T19:26:10.558Z,63.87
2018-12-26T19:28:52.747Z,51.87
2018-12-26T19:31:39.466Z,65.87
2018-12-26T19:34:18.271Z,65.70
2018-12-26T19:37:00.419Z,67.30
2018-12-26T19:39:42.871Z,76.37
2018-12-26T19:42:25.155Z,60.30
2018-12-26T19:45:07.439Z,58.13
2018-12-26T19:47:49.899Z,57.53
2018-12-26T19:50:31.824Z,53.80
2018-12-26T19:53:02.475Z,52.40
2018-12-26T19:55:52.193Z,49.70
2018-12-26T19:58:34.670Z,49.47
2018-12-26T20:01:16.751Z,53.40
2018-12-26T20:03:59.279Z,51.53
2018-12-26T20:06:41.311Z,42.50
2018-12-26T20:09:23.124Z,51.67
2018-12-26T20:12:05.431Z,52.20
2018-12-26T20:14:47.739Z,51.10
2018-12-26T20:17:27.107Z,39.13
2018-12-26T20:20:09.319Z,61.63
2018-12-26T20:22:49.078Z,55.60
2018-12-26T20:25:28.822Z,56.13
2018-12-26T20:28:11.035Z,56.83
2018-12-26T20:30:53.300Z,41.77
2018-12-26T20:33:35.271Z,54.43
2018-12-26T20:36:17.791Z,53.63
2018-12-26T20:39:00.295Z,39.47
2018-12-26T20:41:42.268Z,40.90
2018-12-26T20:44:23.947Z,43.37
2018-12-26T20:47:06.495Z,34.80
2018-12-26T20:49:48.135Z,59.10
2018-12-26T20:52:30.475Z,47.87
2018-12-26T20:55:12.716Z,47.47
2018-12-26T20:57:43.242Z,42.77
2018-12-26T21:00:32.595Z,55.40
2018-12-26T21:03:14.525Z,40.27
2018-12-26T21:05:56.102Z,68.00
2018-12-26T21:08:38.922Z,48.90
2018-12-26T21:11:21.367Z,40.13
2018-12-26T21:17:03.117Z,33.47
2018-12-26T21:19:45.331Z,40.57
2018-12-26T21:22:27.607Z,68.47
2018-12-26T21:24:58.046Z,39.13
2018-12-26T21:27:28.791Z,45.27
2018-12-26T21:30:10.417Z,31.30
2018-12-26T21:32:53.045Z,37.07
2018-12-26T21:35:35.683Z,38.00
2018-12-26T21:38:17.987Z,48.17
2018-12-26T21:41:00.111Z,45.67
2018-12-26T21:43:42.235Z,57.43
2018-12-26T21:46:24.563Z,61.23
2018-12-26T21:49:06.867Z,52.37
2018-12-26T21:51:48.667Z,39.87
2018-12-26T21:54:31.324Z,52.37
2018-12-26T21:57:13.817Z,47.23
2018-12-26T21:59:56.227Z,56.47
2018-12-26T22:02:38.535Z,89.03
2018-12-26T22:05:20.506Z,83.53
2018-12-26T22:08:02.643Z,61.43
2018-12-26T22:10:44.771Z,74.67
2018-12-26T22:13:27.227Z,51.90
2018-12-26T22:16:09.215Z,50.23
2018-12-26T22:18:51.666Z,81.67
2018-12-26T22:21:33.963Z,60.10
2018-12-26T22:24:15.570Z,50.17
2018-12-26T22:26:58.167Z,82.77
2018-12-26T22:29:40.584Z,67.47
2018-12-26T22:32:30.420Z,47.67
2018-12-26T22:35:06.786Z,36.53
2018-12-26T22:37:48.920Z,64.27
2018-12-26T22:40:31.556Z,54.53
2018-12-26T22:46:13.626Z,122.53
2018-12-26T22:48:55.567Z,68.00
2018-12-26T22:51:41.865Z,56.60
2018-12-26T22:54:21.951Z,47.23
2018-12-26T22:57:04.567Z,38.77
2018-12-26T22:59:46.460Z,46.20
2018-12-26T23:02:28.512Z,26.80
2018-12-26T23:05:10.780Z,45.37
2018-12-26T23:07:52.863Z,38.60
2018-12-26T23:10:34.745Z,38.27
2018-12-26T23:13:17.148Z,36.67
2018-12-26T23:15:59.246Z,39.97
2018-12-26T23:18:41.475Z,39.63
2018-12-26T23:21:23.728Z,44.57
2018-12-26T23:24:05.983Z,47.73
2018-12-26T23:26:48.143Z,48.77
2018-12-26T23:29:30.043Z,48.97
2018-12-26T23:32:12.247Z,46.97
2018-12-26T23:34:54.466Z,60.60
2018-12-26T23:37:36.451Z,62.93
2018-12-26T23:40:18.658Z,64.70
2018-12-26T23:43:00.936Z,67.70
2018-12-26T23:45:43.293Z,54.60
2018-12-26T23:48:28.021Z,89.97
2018-12-26T23:51:10.059Z,85.97
2018-12-26T23:53:51.907Z,104.83
2018-12-26T23:59:38.539Z,58.97
